sensor_id;sensor_type;location;lat;lon;timestamp;P1;durP1;ratioP1;P2;durP2;ratioP2
44642;SDS011;33930;-34.276;150.954;2022-11-11T00:01:14;7.15;;;1.75;;
44642;SDS011;33930;-34.276;150.954;2022-11-11T00:03:42;7.93;;;1.35;;
44642;SDS011;33930;-34.276;150.954;2022-11-11T00:06:11;19.10;;;1.98;;
44642;SDS011;33930;-34.276;150.954;2022-11-11T00:08:39;10.57;;;1.13;;
44642;SDS011;33930;-34.276;150.954;2022-11-11T00:11:10;14.55;;;1.45;;
44642;SDS011;33930;-34.276;150.954;2022-11-11T00:13:39;8.63;;;1.13;;
44642;SDS011;33930;-34.276;150.954;2022-11-11T00:18:36;6.82;;;0.98;;
44642;SDS011;33930;-34.276;150.954;2022-11-11T00:21:22;9.63;;;1.10;;
44642;SDS011;33930;-34.276;150.954;2022-11-11T00:24:02;10.23;;;1.48;;
44642;SDS011;33930;-34.276;150.954;2022-11-11T00:26:48;4.10;;;1.35;;
44642;SDS011;33930;-34.276;150.954;2022-11-11T00:29:15;10.70;;;1.13;;
44642;SDS011;33930;-34.276;150.954;2022-11-11T00:31:42;8.38;;;1.55;;
44642;SDS011;33930;-34.276;150.954;2022-11-11T00:34:28;9.48;;;2.08;;
44642;SDS011;33930;-34.276;150.954;2022-11-11T00:36:55;14.65;;;1.83;;
44642;SDS011;33930;-34.276;150.954;2022-11-11T00:39:22;6.50;;;1.23;;
44642;SDS011;33930;-34.276;150.954;2022-11-11T00:41:50;7.72;;;1.48;;
44642;SDS011;33930;-34.276;150.954;2022-11-11T00:44:17;6.70;;;1.08;;
44642;SDS011;33930;-34.276;150.954;2022-11-11T00:46:44;8.68;;;1.05;;
44642;SDS011;33930;-34.276;150.954;2022-11-11T00:49:30;13.80;;;1.77;;
44642;SDS011;33930;-34.276;150.954;2022-11-11T00:52:15;6.38;;;1.13;;
44642;SDS011;33930;-34.276;150.954;2022-11-11T00:54:42;11.00;;;1.40;;
44642;SDS011;33930;-34.276;150.954;2022-11-11T00:57:09;9.82;;;1.42;;
44642;SDS011;33930;-34.276;150.954;2022-11-11T00:59:37;17.65;;;1.80;;
44642;SDS011;33930;-34.276;150.954;2022-11-11T01:02:04;7.55;;;1.55;;
44642;SDS011;33930;-34.276;150.954;2022-11-11T01:04:32;10.82;;;1.75;;
44642;SDS011;33930;-34.276;150.954;2022-11-11T01:06:59;9.93;;;1.65;;
44642;SDS011;33930;-34.276;150.954;2022-11-11T01:09:26;12.35;;;1.38;;
44642;SDS011;33930;-34.276;150.954;2022-11-11T01:11:54;11.55;;;1.80;;
44642;SDS011;33930;-34.276;150.954;2022-11-11T01:14:21;9.13;;;1.58;;
44642;SDS011;33930;-34.276;150.954;2022-11-11T01:16:48;8.75;;;1.30;;
44642;SDS011;33930;-34.276;150.954;2022-11-11T01:19:15;5.47;;;1.52;;
44642;SDS011;33930;-34.276;150.954;2022-11-11T01:21:43;10.05;;;1.73;;
44642;SDS011;33930;-34.276;150.954;2022-11-11T01:24:10;5.53;;;1.30;;
44642;SDS011;33930;-34.276;150.954;2022-11-11T01:26:37;7.03;;;1.23;;
44642;SDS011;33930;-34.276;150.954;2022-11-11T01:29:05;8.98;;;1.48;;
44642;SDS011;33930;-34.276;150.954;2022-11-11T01:31:32;9.15;;;1.52;;
44642;SDS011;33930;-34.276;150.954;2022-11-11T01:33:59;10.82;;;1.27;;
44642;SDS011;33930;-34.276;150.954;2022-11-11T01:36:27;5.07;;;0.90;;
44642;SDS011;33930;-34.276;150.954;2022-11-11T01:38:58;13.00;;;1.40;;
44642;SDS011;33930;-34.276;150.954;2022-11-11T01:41:28;16.70;;;1.83;;
44642;SDS011;33930;-34.276;150.954;2022-11-11T01:43:58;10.32;;;1.48;;
44642;SDS011;33930;-34.276;150.954;2022-11-11T01:46:28;16.95;;;2.10;;
44642;SDS011;33930;-34.276;150.954;2022-11-11T01:51:56;10.23;;;1.92;;
44642;SDS011;33930;-34.276;150.954;2022-11-11T01:54:31;6.30;;;1.55;;
44642;SDS011;33930;-34.276;150.954;2022-11-11T01:57:27;8.50;;;1.52;;
44642;SDS011;33930;-34.276;150.954;2022-11-11T02:00:11;6.63;;;0.98;;
44642;SDS011;33930;-34.276;150.954;2022-11-11T02:02:48;1.75;;;0.80;;
44642;SDS011;33930;-34.276;150.954;2022-11-11T02:05:24;7.13;;;1.17;;
44642;SDS011;33930;-34.276;150.954;2022-11-11T02:13:39;5.00;;;1.10;;
44642;SDS011;33930;-34.276;150.954;2022-11-11T02:16:26;7.88;;;1.83;;
44642;SDS011;33930;-34.276;150.954;2022-11-11T02:18:54;9.20;;;1.20;;
44642;SDS011;33930;-34.276;150.954;2022-11-11T02:21:44;3.60;;;1.10;;
44642;SDS011;33930;-34.276;150.954;2022-11-11T02:24:20;4.68;;;0.95;;
44642;SDS011;33930;-34.276;150.954;2022-11-11T02:26:49;4.80;;;1.10;;
44642;SDS011;33930;-34.276;150.954;2022-11-11T02:29:19;7.57;;;1.42;;
44642;SDS011;33930;-34.276;150.954;2022-11-11T02:31:48;8.18;;;1.02;;
44642;SDS011;33930;-34.276;150.954;2022-11-11T02:34:15;6.63;;;1.55;;
44642;SDS011;33930;-34.276;150.954;2022-11-11T02:36:43;8.32;;;1.15;;
44642;SDS011;33930;-34.276;150.954;2022-11-11T02:39:10;8.57;;;0.75;;
44642;SDS011;33930;-34.276;150.954;2022-11-11T02:41:38;11.32;;;1.48;;
44642;SDS011;33930;-34.276;150.954;2022-11-11T02:44:22;11.80;;;1.55;;
44642;SDS011;33930;-34.276;150.954;2022-11-11T02:46:52;6.35;;;0.82;;
44642;SDS011;33930;-34.276;150.954;2022-11-11T02:49:20;4.38;;;0.70;;
44642;SDS011;33930;-34.276;150.954;2022-11-11T02:51:47;8.40;;;1.55;;
44642;SDS011;33930;-34.276;150.954;2022-11-11T02:54:14;7.03;;;1.70;;
44642;SDS011;33930;-34.276;150.954;2022-11-11T02:56:41;7.88;;;1.30;;
44642;SDS011;33930;-34.276;150.954;2022-11-11T02:59:27;8.05;;;1.10;;
44642;SDS011;33930;-34.276;150.954;2022-11-11T03:01:54;8.00;;;1.48;;
44642;SDS011;33930;-34.276;150.954;2022-11-11T03:04:21;9.27;;;1.27;;
44642;SDS011;33930;-34.276;150.954;2022-11-11T03:06:49;5.97;;;1.35;;
44642;SDS011;33930;-34.276;150.954;2022-11-11T03:09:16;9.27;;;1.77;;
44642;SDS011;33930;-34.276;150.954;2022-11-11T03:11:43;6.07;;;1.52;;
44642;SDS011;33930;-34.276;150.954;2022-11-11T03:14:10;5.30;;;0.95;;
44642;SDS011;33930;-34.276;150.954;2022-11-11T03:16:38;10.82;;;1.40;;
44642;SDS011;33930;-34.276;150.954;2022-11-11T03:19:23;8.60;;;1.35;;
44642;SDS011;33930;-34.276;150.954;2022-11-11T03:21:50;11.00;;;1.33;;
44642;SDS011;33930;-34.276;150.954;2022-11-11T03:24:20;10.73;;;1.40;;
44642;SDS011;33930;-34.276;150.954;2022-11-11T03:26:47;10.88;;;1.35;;
44642;SDS011;33930;-34.276;150.954;2022-11-11T03:29:15;10.50;;;1.40;;
44642;SDS011;33930;-34.276;150.954;2022-11-11T03:31:42;10.70;;;1.92;;
44642;SDS011;33930;-34.276;150.954;2022-11-11T03:34:09;3.92;;;0.80;;
44642;SDS011;33930;-34.276;150.954;2022-11-11T03:36:45;7.45;;;1.27;;
44642;SDS011;33930;-34.276;150.954;2022-11-11T03:39:31;5.15;;;1.00;;
44642;SDS011;33930;-34.276;150.954;2022-11-11T03:41:58;11.77;;;1.80;;
44642;SDS011;33930;-34.276;150.954;2022-11-11T03:44:26;11.02;;;0.90;;
44642;SDS011;33930;-34.276;150.954;2022-11-11T03:46:54;13.38;;;1.55;;
44642;SDS011;33930;-34.276;150.954;2022-11-11T03:49:21;17.73;;;1.77;;
44642;SDS011;33930;-34.276;150.954;2022-11-11T03:51:49;7.82;;;1.55;;
44642;SDS011;33930;-34.276;150.954;2022-11-11T03:54:16;6.40;;;0.98;;
44642;SDS011;33930;-34.276;150.954;2022-11-11T03:56:43;9.88;;;1.60;;
44642;SDS011;33930;-34.276;150.954;2022-11-11T03:59:10;12.48;;;1.65;;
44642;SDS011;33930;-34.276;150.954;2022-11-11T04:01:38;6.07;;;1.70;;
44642;SDS011;33930;-34.276;150.954;2022-11-11T04:04:23;14.15;;;1.70;;
44642;SDS011;33930;-34.276;150.954;2022-11-11T04:07:19;9.20;;;1.73;;
44642;SDS011;33930;-34.276;150.954;2022-11-11T04:10:04;12.77;;;1.67;;
44642;SDS011;33930;-34.276;150.954;2022-11-11T04:12:49;11.63;;;1.85;;
44642;SDS011;33930;-34.276;150.954;2022-11-11T04:15:35;4.88;;;1.30;;
44642;SDS011;33930;-34.276;150.954;2022-11-11T04:18:20;7.63;;;1.38;;
44642;SDS011;33930;-34.276;150.954;2022-11-11T04:21:07;11.60;;;1.67;;
44642;SDS011;33930;-34.276;150.954;2022-11-11T04:23:53;11.57;;;1.88;;
44642;SDS011;33930;-34.276;150.954;2022-11-11T04:26:20;8.43;;;1.45;;
44642;SDS011;33930;-34.276;150.954;2022-11-11T04:28:47;9.18;;;1.60;;
44642;SDS011;33930;-34.276;150.954;2022-11-11T04:31:33;8.95;;;1.45;;
44642;SDS011;33930;-34.276;150.954;2022-11-11T04:34:00;14.80;;;1.70;;
44642;SDS011;33930;-34.276;150.954;2022-11-11T04:36:27;10.02;;;1.38;;
44642;SDS011;33930;-34.276;150.954;2022-11-11T04:38:55;14.88;;;3.20;;
44642;SDS011;33930;-34.276;150.954;2022-11-11T04:41:40;10.13;;;1.52;;
44642;SDS011;33930;-34.276;150.954;2022-11-11T04:44:07;6.40;;;1.50;;
44642;SDS011;33930;-34.276;150.954;2022-11-11T04:46:53;14.18;;;1.58;;
44642;SDS011;33930;-34.276;150.954;2022-11-11T04:49:20;6.68;;;1.38;;
44642;SDS011;33930;-34.276;150.954;2022-11-11T04:51:47;11.50;;;1.30;;
44642;SDS011;33930;-34.276;150.954;2022-11-11T04:54:33;6.22;;;1.15;;
44642;SDS011;33930;-34.276;150.954;2022-11-11T04:57:20;9.95;;;1.50;;
44642;SDS011;33930;-34.276;150.954;2022-11-11T04:59:47;9.05;;;1.60;;
44642;SDS011;33930;-34.276;150.954;2022-11-11T05:02:14;7.43;;;1.52;;
44642;SDS011;33930;-34.276;150.954;2022-11-11T05:04:59;5.03;;;1.20;;
44642;SDS011;33930;-34.276;150.954;2022-11-11T05:07:27;14.63;;;1.38;;
44642;SDS011;33930;-34.276;150.954;2022-11-11T05:10:12;7.00;;;2.03;;
44642;SDS011;33930;-34.276;150.954;2022-11-11T05:12:39;18.20;;;3.05;;
44642;SDS011;33930;-34.276;150.954;2022-11-11T05:15:07;20.70;;;2.45;;
44642;SDS011;33930;-34.276;150.954;2022-11-11T05:17:53;12.38;;;1.88;;
44642;SDS011;33930;-34.276;150.954;2022-11-11T05:20:40;10.15;;;1.77;;
44642;SDS011;33930;-34.276;150.954;2022-11-11T05:23:25;12.45;;;2.33;;
44642;SDS011;33930;-34.276;150.954;2022-11-11T05:26:12;13.40;;;2.35;;
44642;SDS011;33930;-34.276;150.954;2022-11-11T05:28:39;13.68;;;2.10;;
44642;SDS011;33930;-34.276;150.954;2022-11-11T05:31:06;10.82;;;2.38;;
44642;SDS011;33930;-34.276;150.954;2022-11-11T05:33:34;14.63;;;2.50;;
44642;SDS011;33930;-34.276;150.954;2022-11-11T05:36:01;21.73;;;3.67;;
44642;SDS011;33930;-34.276;150.954;2022-11-11T05:38:28;16.20;;;2.30;;
44642;SDS011;33930;-34.276;150.954;2022-11-11T05:40:56;18.98;;;2.90;;
44642;SDS011;33930;-34.276;150.954;2022-11-11T05:43:23;17.50;;;2.45;;
44642;SDS011;33930;-34.276;150.954;2022-11-11T05:45:50;14.20;;;2.33;;
44642;SDS011;33930;-34.276;150.954;2022-11-11T05:48:18;14.25;;;2.42;;
44642;SDS011;33930;-34.276;150.954;2022-11-11T05:50:45;10.75;;;2.40;;
44642;SDS011;33930;-34.276;150.954;2022-11-11T05:53:12;24.95;;;2.58;;
44642;SDS011;33930;-34.276;150.954;2022-11-11T05:55:40;20.85;;;3.35;;
44642;SDS011;33930;-34.276;150.954;2022-11-11T05:58:07;16.15;;;2.50;;
44642;SDS011;33930;-34.276;150.954;2022-11-11T06:00:35;15.25;;;3.17;;
44642;SDS011;33930;-34.276;150.954;2022-11-11T06:03:03;15.57;;;3.10;;
44642;SDS011;33930;-34.276;150.954;2022-11-11T06:05:31;16.65;;;3.28;;
44642;SDS011;33930;-34.276;150.954;2022-11-11T06:07:58;21.30;;;3.17;;
44642;SDS011;33930;-34.276;150.954;2022-11-11T06:10:25;8.20;;;1.92;;
44642;SDS011;33930;-34.276;150.954;2022-11-11T06:12:56;10.35;;;1.85;;
44642;SDS011;33930;-34.276;150.954;2022-11-11T06:15:27;7.90;;;1.95;;
44642;SDS011;33930;-34.276;150.954;2022-11-11T06:17:54;7.57;;;0.98;;
44642;SDS011;33930;-34.276;150.954;2022-11-11T06:20:21;7.13;;;1.27;;
44642;SDS011;33930;-34.276;150.954;2022-11-11T06:22:49;8.93;;;1.58;;
44642;SDS011;33930;-34.276;150.954;2022-11-11T06:25:26;16.48;;;1.70;;
44642;SDS011;33930;-34.276;150.954;2022-11-11T06:28:13;15.68;;;3.13;;
44642;SDS011;33930;-34.276;150.954;2022-11-11T06:30:40;17.70;;;3.30;;
44642;SDS011;33930;-34.276;150.954;2022-11-11T06:33:08;31.95;;;5.57;;
44642;SDS011;33930;-34.276;150.954;2022-11-11T06:35:36;23.00;;;4.57;;
44642;SDS011;33930;-34.276;150.954;2022-11-11T06:38:05;20.45;;;3.75;;
44642;SDS011;33930;-34.276;150.954;2022-11-11T06:40:33;19.50;;;4.53;;
44642;SDS011;33930;-34.276;150.954;2022-11-11T06:43:00;22.58;;;3.60;;
44642;SDS011;33930;-34.276;150.954;2022-11-11T06:45:28;15.20;;;3.65;;
44642;SDS011;33930;-34.276;150.954;2022-11-11T06:47:57;23.00;;;3.75;;
44642;SDS011;33930;-34.276;150.954;2022-11-11T06:50:25;17.48;;;2.70;;
44642;SDS011;33930;-34.276;150.954;2022-11-11T06:52:53;23.20;;;4.55;;
44642;SDS011;33930;-34.276;150.954;2022-11-11T06:55:21;22.63;;;2.90;;
44642;SDS011;33930;-34.276;150.954;2022-11-11T06:57:48;21.25;;;3.70;;
44642;SDS011;33930;-34.276;150.954;2022-11-11T07:00:16;11.90;;;3.40;;
44642;SDS011;33930;-34.276;150.954;2022-11-11T07:02:43;20.40;;;3.17;;
44642;SDS011;33930;-34.276;150.954;2022-11-11T07:05:12;16.15;;;3.65;;
44642;SDS011;33930;-34.276;150.954;2022-11-11T07:07:39;12.60;;;2.67;;
44642;SDS011;33930;-34.276;150.954;2022-11-11T07:10:06;16.25;;;2.80;;
44642;SDS011;33930;-34.276;150.954;2022-11-11T07:12:35;18.48;;;4.13;;
44642;SDS011;33930;-34.276;150.954;2022-11-11T07:15:02;22.60;;;3.63;;
44642;SDS011;33930;-34.276;150.954;2022-11-11T07:17:29;17.65;;;3.22;;
44642;SDS011;33930;-34.276;150.954;2022-11-11T07:19:57;31.65;;;5.47;;
44642;SDS011;33930;-34.276;150.954;2022-11-11T07:22:24;34.70;;;6.85;;
44642;SDS011;33930;-34.276;150.954;2022-11-11T07:24:51;38.78;;;6.30;;
44642;SDS011;33930;-34.276;150.954;2022-11-11T07:27:19;36.72;;;5.22;;
44642;SDS011;33930;-34.276;150.954;2022-11-11T07:29:46;31.70;;;5.55;;
44642;SDS011;33930;-34.276;150.954;2022-11-11T07:32:14;24.63;;;4.53;;
44642;SDS011;33930;-34.276;150.954;2022-11-11T07:34:42;31.55;;;4.50;;
44642;SDS011;33930;-34.276;150.954;2022-11-11T07:37:09;22.13;;;3.70;;
44642;SDS011;33930;-34.276;150.954;2022-11-11T07:39:36;25.38;;;4.30;;
44642;SDS011;33930;-34.276;150.954;2022-11-11T07:42:04;16.98;;;3.80;;
44642;SDS011;33930;-34.276;150.954;2022-11-11T07:44:31;18.30;;;3.97;;
44642;SDS011;33930;-34.276;150.954;2022-11-11T07:46:58;16.80;;;3.55;;
44642;SDS011;33930;-34.276;150.954;2022-11-11T07:49:26;16.95;;;4.20;;
44642;SDS011;33930;-34.276;150.954;2022-11-11T07:51:53;18.33;;;4.28;;
44642;SDS011;33930;-34.276;150.954;2022-11-11T07:54:20;29.10;;;6.60;;
44642;SDS011;33930;-34.276;150.954;2022-11-11T07:56:47;78.45;;;13.98;;
44642;SDS011;33930;-34.276;150.954;2022-11-11T07:59:15;61.72;;;13.55;;
44642;SDS011;33930;-34.276;150.954;2022-11-11T08:01:42;45.15;;;8.82;;
44642;SDS011;33930;-34.276;150.954;2022-11-11T08:04:10;40.08;;;7.40;;
44642;SDS011;33930;-34.276;150.954;2022-11-11T08:06:37;37.20;;;7.28;;
44642;SDS011;33930;-34.276;150.954;2022-11-11T08:09:04;40.80;;;8.52;;
44642;SDS011;33930;-34.276;150.954;2022-11-11T08:11:32;32.90;;;5.55;;
44642;SDS011;33930;-34.276;150.954;2022-11-11T08:14:17;22.08;;;5.22;;
44642;SDS011;33930;-34.276;150.954;2022-11-11T08:16:44;17.33;;;4.03;;
44642;SDS011;33930;-34.276;150.954;2022-11-11T08:19:11;15.98;;;3.42;;
44642;SDS011;33930;-34.276;150.954;2022-11-11T08:21:39;13.40;;;3.00;;
44642;SDS011;33930;-34.276;150.954;2022-11-11T08:24:06;9.95;;;2.30;;
44642;SDS011;33930;-34.276;150.954;2022-11-11T08:26:33;7.45;;;1.60;;
44642;SDS011;33930;-34.276;150.954;2022-11-11T08:29:01;6.68;;;1.70;;
44642;SDS011;33930;-34.276;150.954;2022-11-11T08:31:28;7.28;;;1.92;;
44642;SDS011;33930;-34.276;150.954;2022-11-11T08:33:56;3.22;;;1.38;;
44642;SDS011;33930;-34.276;150.954;2022-11-11T08:36:23;6.70;;;0.90;;
44642;SDS011;33930;-34.276;150.954;2022-11-11T08:38:51;1.45;;;0.77;;
44642;SDS011;33930;-34.276;150.954;2022-11-11T08:41:18;4.57;;;1.40;;
44642;SDS011;33930;-34.276;150.954;2022-11-11T08:43:51;2.20;;;0.90;;
44642;SDS011;33930;-34.276;150.954;2022-11-11T08:46:20;5.35;;;1.02;;
44642;SDS011;33930;-34.276;150.954;2022-11-11T08:48:48;3.13;;;1.05;;
44642;SDS011;33930;-34.276;150.954;2022-11-11T08:51:15;4.50;;;1.00;;
44642;SDS011;33930;-34.276;150.954;2022-11-11T08:53:43;5.07;;;1.17;;
44642;SDS011;33930;-34.276;150.954;2022-11-11T08:56:10;10.15;;;1.40;;
44642;SDS011;33930;-34.276;150.954;2022-11-11T08:58:37;7.35;;;1.00;;
44642;SDS011;33930;-34.276;150.954;2022-11-11T09:01:09;6.78;;;1.10;;
44642;SDS011;33930;-34.276;150.954;2022-11-11T09:03:40;3.60;;;0.88;;
44642;SDS011;33930;-34.276;150.954;2022-11-11T09:06:10;7.38;;;1.13;;
44642;SDS011;33930;-34.276;150.954;2022-11-11T09:08:40;4.63;;;1.10;;
44642;SDS011;33930;-34.276;150.954;2022-11-11T09:11:08;3.42;;;0.93;;
44642;SDS011;33930;-34.276;150.954;2022-11-11T09:13:35;4.05;;;1.58;;
44642;SDS011;33930;-34.276;150.954;2022-11-11T09:16:03;3.92;;;1.25;;
44642;SDS011;33930;-34.276;150.954;2022-11-11T09:18:30;5.55;;;0.90;;
44642;SDS011;33930;-34.276;150.954;2022-11-11T09:20:58;4.60;;;1.35;;
44642;SDS011;33930;-34.276;150.954;2022-11-11T09:23:25;1.88;;;1.00;;
44642;SDS011;33930;-34.276;150.954;2022-11-11T09:25:53;4.60;;;0.93;;
44642;SDS011;33930;-34.276;150.954;2022-11-11T09:28:22;7.75;;;2.15;;
44642;SDS011;33930;-34.276;150.954;2022-11-11T09:30:50;6.22;;;2.20;;
44642;SDS011;33930;-34.276;150.954;2022-11-11T09:33:17;34.65;;;4.50;;
44642;SDS011;33930;-34.276;150.954;2022-11-11T09:35:44;11.88;;;3.30;;
44642;SDS011;33930;-34.276;150.954;2022-11-11T09:38:12;20.45;;;3.60;;
44642;SDS011;33930;-34.276;150.954;2022-11-11T09:43:41;10.25;;;1.90;;
44642;SDS011;33930;-34.276;150.954;2022-11-11T09:51:46;9.07;;;2.10;;
44642;SDS011;33930;-34.276;150.954;2022-11-11T09:54:18;11.32;;;1.90;;
44642;SDS011;33930;-34.276;150.954;2022-11-11T10:00:28;6.20;;;1.63;;
44642;SDS011;33930;-34.276;150.954;2022-11-11T10:02:57;3.40;;;0.93;;
44642;SDS011;33930;-34.276;150.954;2022-11-11T10:08:27;3.88;;;0.90;;
44642;SDS011;33930;-34.276;150.954;2022-11-11T10:10:59;3.80;;;1.10;;
44642;SDS011;33930;-34.276;150.954;2022-11-11T10:13:31;3.30;;;0.80;;
44642;SDS011;33930;-34.276;150.954;2022-11-11T10:21:13;0.98;;;0.40;;
44642;SDS011;33930;-34.276;150.954;2022-11-11T10:23:47;2.50;;;0.60;;
44642;SDS011;33930;-34.276;150.954;2022-11-11T10:26:50;3.38;;;0.47;;
44642;SDS011;33930;-34.276;150.954;2022-11-11T10:29:17;8.27;;;1.23;;
44642;SDS011;33930;-34.276;150.954;2022-11-11T10:31:51;8.68;;;1.90;;
44642;SDS011;33930;-34.276;150.954;2022-11-11T10:34:31;4.68;;;1.33;;
44642;SDS011;33930;-34.276;150.954;2022-11-11T10:37:00;4.15;;;1.60;;
44642;SDS011;33930;-34.276;150.954;2022-11-11T10:42:04;2.38;;;0.40;;
44642;SDS011;33930;-34.276;150.954;2022-11-11T10:44:41;0.40;;;0.40;;
44642;SDS011;33930;-34.276;150.954;2022-11-11T10:50:03;0.73;;;0.40;;
44642;SDS011;33930;-34.276;150.954;2022-11-11T10:52:40;0.45;;;0.35;;
44642;SDS011;33930;-34.276;150.954;2022-11-11T10:55:21;0.82;;;0.40;;
44642;SDS011;33930;-34.276;150.954;2022-11-11T10:58:09;2.50;;;1.30;;
44642;SDS011;33930;-34.276;150.954;2022-11-11T11:01:09;1.75;;;0.52;;
44642;SDS011;33930;-34.276;150.954;2022-11-11T11:03:49;0.40;;;0.40;;
44642;SDS011;33930;-34.276;150.954;2022-11-11T11:06:24;0.43;;;0.25;;
44642;SDS011;33930;-34.276;150.954;2022-11-11T11:08:56;1.00;;;0.40;;
44642;SDS011;33930;-34.276;150.954;2022-11-11T11:12:07;0.90;;;0.40;;
44642;SDS011;33930;-34.276;150.954;2022-11-11T11:14:43;6.45;;;2.05;;
44642;SDS011;33930;-34.276;150.954;2022-11-11T11:17:14;7.47;;;1.48;;
44642;SDS011;33930;-34.276;150.954;2022-11-11T11:20:10;2.42;;;0.75;;
44642;SDS011;33930;-34.276;150.954;2022-11-11T11:22:44;1.02;;;0.68;;
44642;SDS011;33930;-34.276;150.954;2022-11-11T11:25:12;5.82;;;0.82;;
44642;SDS011;33930;-34.276;150.954;2022-11-11T11:27:40;3.10;;;0.70;;
44642;SDS011;33930;-34.276;150.954;2022-11-11T11:30:12;3.83;;;0.70;;
44642;SDS011;33930;-34.276;150.954;2022-11-11T11:32:40;3.03;;;0.80;;
44642;SDS011;33930;-34.276;150.954;2022-11-11T11:35:08;6.75;;;1.38;;
44642;SDS011;33930;-34.276;150.954;2022-11-11T11:37:54;4.35;;;1.20;;
44642;SDS011;33930;-34.276;150.954;2022-11-11T11:40:21;6.65;;;1.50;;
44642;SDS011;33930;-34.276;150.954;2022-11-11T11:42:49;6.13;;;1.63;;
44642;SDS011;33930;-34.276;150.954;2022-11-11T11:50:30;5.63;;;1.20;;
44642;SDS011;33930;-34.276;150.954;2022-11-11T11:55:56;3.38;;;1.20;;
44642;SDS011;33930;-34.276;150.954;2022-11-11T12:01:54;3.40;;;1.02;;
44642;SDS011;33930;-34.276;150.954;2022-11-11T12:12:58;4.38;;;1.40;;
44642;SDS011;33930;-34.276;150.954;2022-11-11T12:15:36;3.90;;;1.35;;
44642;SDS011;33930;-34.276;150.954;2022-11-11T12:26:18;3.88;;;1.30;;
44642;SDS011;33930;-34.276;150.954;2022-11-11T12:42:35;1.83;;;1.10;;
44642;SDS011;33930;-34.276;150.954;2022-11-11T12:45:25;3.60;;;1.27;;
44642;SDS011;33930;-34.276;150.954;2022-11-11T12:51:04;2.22;;;1.13;;
44642;SDS011;33930;-34.276;150.954;2022-11-11T12:56:14;2.55;;;0.90;;
44642;SDS011;33930;-34.276;150.954;2022-11-11T12:59:04;4.07;;;1.20;;
44642;SDS011;33930;-34.276;150.954;2022-11-11T13:15:46;3.95;;;0.88;;
44642;SDS011;33930;-34.276;150.954;2022-11-11T13:18:23;2.45;;;1.05;;
44642;SDS011;33930;-34.276;150.954;2022-11-11T13:20:57;9.60;;;1.95;;
44642;SDS011;33930;-34.276;150.954;2022-11-11T13:23:28;13.93;;;1.80;;
44642;SDS011;33930;-34.276;150.954;2022-11-11T13:25:57;3.75;;;0.85;;
44642;SDS011;33930;-34.276;150.954;2022-11-11T13:28:31;6.28;;;1.70;;
44642;SDS011;33930;-34.276;150.954;2022-11-11T13:31:10;3.67;;;1.10;;
44642;SDS011;33930;-34.276;150.954;2022-11-11T13:33:47;4.07;;;1.42;;
44642;SDS011;33930;-34.276;150.954;2022-11-11T13:36:20;3.00;;;1.25;;
44642;SDS011;33930;-34.276;150.954;2022-11-11T13:38:52;4.13;;;1.70;;
44642;SDS011;33930;-34.276;150.954;2022-11-11T13:41:27;2.28;;;1.23;;
44642;SDS011;33930;-34.276;150.954;2022-11-11T13:44:02;3.88;;;1.27;;
44642;SDS011;33930;-34.276;150.954;2022-11-11T13:49:04;1.77;;;0.88;;
44642;SDS011;33930;-34.276;150.954;2022-11-11T13:51:36;2.95;;;1.30;;
44642;SDS011;33930;-34.276;150.954;2022-11-11T13:54:05;3.88;;;1.58;;
44642;SDS011;33930;-34.276;150.954;2022-11-11T13:56:49;2.58;;;1.60;;
44642;SDS011;33930;-34.276;150.954;2022-11-11T13:59:21;4.22;;;1.50;;
44642;SDS011;33930;-34.276;150.954;2022-11-11T14:02:12;1.80;;;1.48;;
44642;SDS011;33930;-34.276;150.954;2022-11-11T14:05:21;3.58;;;1.77;;
44642;SDS011;33930;-34.276;150.954;2022-11-11T14:18:09;3.13;;;1.35;;
44642;SDS011;33930;-34.276;150.954;2022-11-11T14:20:49;4.43;;;1.77;;
44642;SDS011;33930;-34.276;150.954;2022-11-11T14:28:58;2.35;;;1.42;;
44642;SDS011;33930;-34.276;150.954;2022-11-11T14:39:49;2.25;;;1.50;;
44642;SDS011;33930;-34.276;150.954;2022-11-11T14:47:55;2.40;;;1.40;;
44642;SDS011;33930;-34.276;150.954;2022-11-11T14:53:13;2.15;;;1.38;;
44642;SDS011;33930;-34.276;150.954;2022-11-11T14:55:49;2.88;;;1.45;;
44642;SDS011;33930;-34.276;150.954;2022-11-11T14:58:20;1.90;;;1.17;;
44642;SDS011;33930;-34.276;150.954;2022-11-11T15:00:51;5.20;;;1.67;;
44642;SDS011;33930;-34.276;150.954;2022-11-11T15:03:38;2.28;;;1.30;;
44642;SDS011;33930;-34.276;150.954;2022-11-11T15:06:25;2.78;;;1.30;;
44642;SDS011;33930;-34.276;150.954;2022-11-11T15:09:12;3.05;;;1.20;;
44642;SDS011;33930;-34.276;150.954;2022-11-11T15:14:41;5.32;;;1.40;;
44642;SDS011;33930;-34.276;150.954;2022-11-11T15:26:05;7.65;;;1.60;;
44642;SDS011;33930;-34.276;150.954;2022-11-11T15:31:50;2.33;;;1.08;;
44642;SDS011;33930;-34.276;150.954;2022-11-11T15:34:41;1.65;;;1.00;;
44642;SDS011;33930;-34.276;150.954;2022-11-11T15:37:21;3.00;;;1.50;;
44642;SDS011;33930;-34.276;150.954;2022-11-11T15:39:51;4.72;;;1.30;;
44642;SDS011;33930;-34.276;150.954;2022-11-11T15:42:38;2.97;;;1.33;;
44642;SDS011;33930;-34.276;150.954;2022-11-11T15:47:49;3.15;;;1.00;;
44642;SDS011;33930;-34.276;150.954;2022-11-11T15:52:55;2.47;;;0.85;;
44642;SDS011;33930;-34.276;150.954;2022-11-11T15:58:09;1.05;;;0.80;;
44642;SDS011;33930;-34.276;150.954;2022-11-11T16:00:40;1.45;;;0.93;;
44642;SDS011;33930;-34.276;150.954;2022-11-11T16:03:30;1.10;;;1.00;;
44642;SDS011;33930;-34.276;150.954;2022-11-11T16:06:01;2.38;;;0.88;;
44642;SDS011;33930;-34.276;150.954;2022-11-11T16:08:32;2.38;;;0.82;;
44642;SDS011;33930;-34.276;150.954;2022-11-11T16:11:00;3.22;;;0.95;;
44642;SDS011;33930;-34.276;150.954;2022-11-11T16:16:24;2.35;;;0.85;;
44642;SDS011;33930;-34.276;150.954;2022-11-11T16:19:00;1.67;;;0.80;;
44642;SDS011;33930;-34.276;150.954;2022-11-11T16:21:34;1.73;;;0.55;;
44642;SDS011;33930;-34.276;150.954;2022-11-11T16:24:29;1.08;;;0.60;;
44642;SDS011;33930;-34.276;150.954;2022-11-11T16:27:00;4.10;;;0.70;;
44642;SDS011;33930;-34.276;150.954;2022-11-11T16:29:33;1.88;;;0.80;;
44642;SDS011;33930;-34.276;150.954;2022-11-11T16:32:18;2.45;;;0.47;;
44642;SDS011;33930;-34.276;150.954;2022-11-11T16:34:58;1.02;;;0.45;;
44642;SDS011;33930;-34.276;150.954;2022-11-11T16:37:26;0.50;;;0.47;;
44642;SDS011;33930;-34.276;150.954;2022-11-11T16:39:54;0.60;;;0.60;;
44642;SDS011;33930;-34.276;150.954;2022-11-11T16:42:22;1.15;;;0.57;;
44642;SDS011;33930;-34.276;150.954;2022-11-11T16:45:03;0.68;;;0.68;;
44642;SDS011;33930;-34.276;150.954;2022-11-11T16:47:44;1.95;;;0.75;;
44642;SDS011;33930;-34.276;150.954;2022-11-11T16:50:16;1.63;;;0.60;;
44642;SDS011;33930;-34.276;150.954;2022-11-11T16:52:58;2.05;;;0.50;;
44642;SDS011;33930;-34.276;150.954;2022-11-11T16:55:34;3.88;;;1.08;;
44642;SDS011;33930;-34.276;150.954;2022-11-11T16:58:20;1.73;;;0.73;;
44642;SDS011;33930;-34.276;150.954;2022-11-11T17:00:48;1.20;;;0.52;;
44642;SDS011;33930;-34.276;150.954;2022-11-11T17:03:23;0.77;;;0.73;;
44642;SDS011;33930;-34.276;150.954;2022-11-11T17:05:53;2.40;;;0.50;;
44642;SDS011;33930;-34.276;150.954;2022-11-11T17:14:05;1.73;;;0.70;;
44642;SDS011;33930;-34.276;150.954;2022-11-11T17:16:32;2.00;;;1.00;;
44642;SDS011;33930;-34.276;150.954;2022-11-11T17:18:59;0.75;;;0.60;;